Newton Grove, North Carolina
Current Conditions -  °F | °C
As of 3:15 AM on Saturday 01 Nov 2014 (Local Time) from KCTZ Reporting Station
Overcast Overcast  
Wind Chill: 47°   Ceiling: 6000
Heat Index: 49°   Visibility: 10mi
Dew Point: 44°   Wind: 5mph
Humidity: 82%   Direction: 70°ENE
Pressure: 29.71"   Gusts: NA
Location:  35.25°N, 78.35°W
Report Text: KCTZ 010715Z AUTO 07004KT 10SM OVC060 10/07 A2971 RMK AO2 T00950066
Loading
Personal Weather Stations






























Interactive Weather Map
Tropical Storm Tracking
New forecast layout! Learn more

10-Day Weather Forecast

Advertisements
Track Severe Weather on mobile